Time;durP1;ratioP1;P1;durP2;ratioP2;P2;SDS_P1;SDS_P2;PMS_P1;PMS_P2;Temp;Humidity;BMP_temperature;BMP_pressure;BME280_temperature;BME280_humidity;BME280_pressure;Samples;Min_cycle;Max_cycle;Signal;HPM_P1;HPM_P2
2022/12/27 00:01:32;;;;;;;10.65;6.95;;;;;;;4.73;100.00;62490.28;5007095;28;20266;-78
2022/12/27 00:03:59;;;;;;;12.18;7.63;;;;;;;4.66;100.00;62480.56;5009613;28;20234;-78
2022/12/27 00:06:27;;;;;;;10.85;7.82;;;;;;;4.75;100.00;62484.78;5005782;28;20548;-78
2022/12/27 00:08:55;;;;;;;8.15;6.38;;;;;;;4.74;100.00;62491.81;5008767;28;20230;-80
2022/12/27 00:11:26;;;;;;;12.20;9.30;;;;;;;4.78;100.00;62495.44;5007451;28;20219;-77
2022/12/27 00:13:54;;;;;;;16.50;11.45;;;;;;;4.78;100.00;62497.94;5006542;28;20207;-78
2022/12/27 00:16:22;;;;;;;15.48;10.13;;;;;;;4.73;100.00;62485.25;5008005;28;20219;-78
2022/12/27 00:18:51;;;;;;;14.95;9.85;;;;;;;4.68;100.00;62485.13;5008741;28;20250;-79
2022/12/27 00:21:19;;;;;;;16.83;7.70;;;;;;;4.74;100.00;62486.78;5006349;28;20216;-78
2022/12/27 00:23:49;;;;;;;14.60;7.07;;;;;;;4.76;100.00;62490.88;5007479;28;20206;-78
2022/12/27 00:26:18;;;;;;;11.18;7.20;;;;;;;4.76;100.00;62488.34;5008050;28;20295;-79
2022/12/27 00:28:48;;;;;;;7.13;6.03;;;;;;;4.79;100.00;62495.94;5007720;28;20259;-77
2022/12/27 00:31:16;;;;;;;6.72;5.30;;;;;;;4.84;100.00;62501.09;5006615;28;20227;-77
2022/12/27 00:33:44;;;;;;;7.75;4.97;;;;;;;4.79;100.00;62495.94;5006852;28;20214;-78
2022/12/27 00:36:14;;;;;;;3.90;3.55;;;;;;;4.78;100.00;62490.38;5007177;28;20230;-78
2022/12/27 00:38:41;;;;;;;4.70;4.30;;;;;;;4.82;100.00;62497.03;5008192;28;20195;-78
2022/12/27 00:41:09;;;;;;;7.20;4.32;;;;;;;4.74;100.00;62488.81;5005809;28;20469;-78
2022/12/27 00:43:37;;;;;;;10.60;4.55;;;;;;;4.69;100.00;62481.63;5007597;28;20203;-78
2022/12/27 00:46:06;;;;;;;6.30;4.53;;;;;;;4.71;100.00;62486.22;5007453;28;20226;-78
2022/12/27 00:48:33;;;;;;;7.35;4.68;;;;;;;4.72;100.00;62484.75;5008343;28;20332;-78
2022/12/27 00:51:02;;;;;;;7.10;5.00;;;;;;;4.66;100.00;62480.56;5005389;28;20235;-78
2022/12/27 00:53:30;;;;;;;12.95;8.00;;;;;;;4.73;100.00;62485.25;5008003;28;20203;-78
2022/12/27 00:55:58;;;;;;;13.57;8.10;;;;;;;4.70;100.00;62487.19;5006967;28;20246;-80
2022/12/27 00:58:26;;;;;;;10.40;6.93;;;;;;;4.57;100.00;62468.78;5007851;28;20203;-77
2022/12/27 01:00:53;;;;;;;11.00;7.88;;;;;;;4.59;100.00;62473.88;5007339;28;20302;-78
2022/12/27 01:03:22;;;;;;;9.85;8.15;;;;;;;4.65;100.00;62474.50;5005268;28;20249;-78
2022/12/27 01:05:52;;;;;;;15.13;10.43;;;;;;;4.64;100.00;62476.50;5007751;28;20409;-78
2022/12/27 01:08:19;;;;;;;15.40;10.45;;;;;;;4.60;100.00;62474.91;5005344;28;20223;-77
2022/12/27 01:10:45;;;;;;;15.30;10.93;;;;;;;4.38;100.00;62451.75;5006164;28;20219;-77
2022/12/27 01:13:13;;;;;;;16.08;7.82;;;;;;;4.53;100.00;62462.13;5008987;28;20205;-78
2022/12/27 01:15:42;;;;;;;11.25;7.82;;;;;;;4.50;100.00;62466.63;5006536;28;20524;-79
2022/12/27 01:18:09;;;;;;;11.25;7.78;;;;;;;4.42;100.00;62455.84;5005228;28;20241;-79
2022/12/27 01:20:39;;;;;;;12.15;7.55;;;;;;;4.33;100.00;62446.59;5006415;28;20219;-78
2022/12/27 01:23:05;;;;;;;7.70;6.38;;;;;;;4.29;100.00;62442.47;5005471;28;20204;-78
2022/12/27 01:25:32;;;;;;;9.93;7.10;;;;;;;4.27;100.00;62443.47;5005162;28;20218;-77
2022/12/27 01:27:59;;;;;;;12.05;8.73;;;;;;;4.29;100.00;62442.47;5007937;28;20223;-78
2022/12/27 01:30:26;;;;;;;13.23;8.82;;;;;;;4.29;100.00;62445.53;5005898;28;20254;-78
2022/12/27 01:32:53;;;;;;;14.10;8.50;;;;;;;4.19;100.00;62432.72;5007019;28;20266;-77
2022/12/27 01:35:20;;;;;;;10.70;7.90;;;;;;;4.20;100.00;62431.22;5004416;28;20203;-78
2022/12/27 01:37:48;;;;;;;10.80;8.48;;;;;;;4.29;100.00;62442.47;5006005;28;20206;-78
2022/12/27 01:40:15;;;;;;;12.88;7.70;;;;;;;4.21;100.00;62436.78;5009383;28;20237;-78
2022/12/27 01:42:54;;;;;;;13.77;7.30;;;;;;;4.11;100.00;62416.91;5007821;28;20247;-78
2022/12/27 01:45:22;;;;;;;7.63;6.68;;;;;;;4.16;100.00;62426.59;5005667;28;20496;-78
2022/12/27 01:47:54;;;;;;;10.63;6.90;;;;;;;3.94;100.00;62408.97;5006796;28;20238;-78
2022/12/27 01:50:32;;;;;;;11.07;7.45;;;;;;;3.86;100.00;62401.28;5006104;28;20227;-79
2022/12/27 01:53:07;;;;;;;10.57;6.80;;;;;;;3.90;100.00;62402.34;5005560;28;20203;-78
2022/12/27 01:55:40;;;;;;;16.10;8.30;;;;;;;3.94;100.00;62406.97;5009624;28;20234;-78
2022/12/27 01:58:11;;;;;;;10.98;7.57;;;;;;;3.93;100.00;62400.41;5006887;28;20199;-77
2022/12/27 02:00:39;;;;;;;12.57;8.75;;;;;;;3.85;100.00;62394.69;5005929;28;20233;-79
2022/12/27 02:03:07;;;;;;;15.70;9.10;;;;;;;3.87;100.00;62399.25;5005825;28;20207;-78
2022/12/27 02:05:35;;;;;;;8.95;7.72;;;;;;;4.05;100.00;62415.78;5007178;28;20199;-78
2022/12/27 02:08:16;;;;;;;9.70;7.63;;;;;;;4.05;100.00;62415.25;5005588;28;20246;-78
2022/12/27 02:10:44;;;;;;;18.05;8.18;;;;;;;4.03;100.00;62415.72;5007805;28;20270;-78
2022/12/27 02:13:11;;;;;;;8.27;7.30;;;;;;;3.99;100.00;62412.13;5007157;28;20529;-78
2022/12/27 02:15:38;;;;;;;9.05;6.93;;;;;;;4.09;100.00;62422.41;5006947;28;20225;-78
2022/12/27 02:18:05;;;;;;;8.20;6.15;;;;;;;4.10;100.00;62423.44;5005600;28;20219;-78
2022/12/27 02:20:47;;;;;;;10.85;7.28;;;;;;;4.10;100.00;62422.94;5007191;28;20204;-77
2022/12/27 02:26:51;;;;;;;9.80;6.68;;;;;;;3.99;100.00;62409.09;5009032;28;20286;-78
2022/12/27 02:29:35;;;;;;;8.73;5.03;;;;;;;3.99;100.00;62412.13;5004787;28;20250;-78
2022/12/27 02:32:08;;;;;;;10.32;5.60;;;;;;;4.01;100.00;62416.19;5008167;28;20227;-78
2022/12/27 02:34:43;;;;;;;8.60;5.80;;;;;;;4.07;100.00;62419.84;5005266;28;20328;-78
2022/12/27 02:37:12;;;;;;;11.73;5.97;;;;;;;4.05;100.00;62415.25;5008570;28;20230;-77
2022/12/27 02:39:43;;;;;;;10.05;5.57;;;;;;;4.09;100.00;62422.41;5011359;28;20218;-78
2022/12/27 02:53:26;;;;;;;6.55;5.20;;;;;;;3.94;100.00;62403.94;5008119;28;20267;-78
2022/12/27 02:59:09;;;;;;;9.43;6.43;;;;;;;3.84;100.00;62394.19;5007611;28;20211;-77
2022/12/27 03:04:53;;;;;;;8.70;5.53;;;;;;;3.86;100.00;62393.19;5008266;28;20198;-77
2022/12/27 03:07:29;;;;;;;7.50;5.45;;;;;;;3.83;100.00;62398.19;5007314;28;20215;-78
2022/12/27 03:15:57;;;;;;;9.40;6.10;;;;;;;3.74;100.00;62383.91;5007453;28;20221;-78
2022/12/27 03:18:51;;;;;;;11.55;6.05;;;;;;;3.73;100.00;62385.38;5008763;28;20480;-78
2022/12/27 03:27:16;;;;;;;12.57;6.68;;;;;;;3.60;100.00;62372.00;5009083;28;20283;-78
2022/12/27 03:35:22;;;;;;;11.95;6.63;;;;;;;3.59;100.00;62370.97;4988341;28;20202;-78
2022/12/27 03:38:04;;;;;;;8.15;5.90;;;;;;;3.56;100.00;62367.91;4989534;28;20224;-77
2022/12/27 03:43:28;;;;;;;8.98;6.25;;;;;;;3.58;100.00;62369.44;5007015;28;20519;-78
2022/12/27 03:48:56;;;;;;;9.13;6.82;;;;;;;3.66;100.00;62375.66;5009469;28;20225;-77
2022/12/27 03:51:27;;;;;;;7.15;6.07;;;;;;;3.71;100.00;62382.81;5007943;28;20216;-78
2022/12/27 03:54:00;;;;;;;10.00;6.85;;;;;;;3.68;100.00;62380.22;5010330;28;20196;-78
2022/12/27 03:56:28;;;;;;;9.50;6.10;;;;;;;3.71;100.00;62380.81;5006866;28;20253;-77
2022/12/27 03:58:57;;;;;;;8.07;5.90;;;;;;;3.66;100.00;62378.19;5006289;28;20212;-78
2022/12/27 04:01:24;;;;;;;9.13;6.05;;;;;;;3.67;100.00;62378.69;5008645;28;20223;-77
2022/12/27 04:03:51;;;;;;;7.15;6.03;;;;;;;3.68;100.00;62375.19;5008485;28;20191;-77
2022/12/27 04:06:17;;;;;;;6.43;5.43;;;;;;;3.67;100.00;62379.22;5007962;28;20257;-77
2022/12/27 04:36:14;;;;;;;9.55;6.75;;;;;;;3.50;100.00;62359.72;5008275;28;20318;-77
2022/12/27 04:38:41;;;;;;;10.68;6.75;;;;;;;3.57;100.00;62370.94;5006337;28;20211;-77
2022/12/27 04:54:59;;;;;;;8.43;6.20;;;;;;;3.58;100.00;62369.44;5006912;28;20187;-78
2022/12/27 04:57:28;;;;;;;7.85;5.47;;;;;;;3.65;100.00;62371.59;5005393;28;20528;-78
2022/12/27 05:02:40;;;;;;;9.80;5.65;;;;;;;3.68;100.00;62380.22;5006446;28;20201;-78
2022/12/27 05:05:09;;;;;;;8.25;6.13;;;;;;;3.63;100.00;62369.53;5005652;28;20206;-77
2022/12/27 05:15:55;;;;;;;7.18;6.40;;;;;;;3.62;100.00;62369.03;4991730;28;20219;-77
2022/12/27 05:18:22;;;;;;;7.75;5.63;;;;;;;3.71;100.00;62382.81;5002087;28;20204;-77
2022/12/27 05:20:49;;;;;;;7.20;4.97;;;;;;;3.72;100.00;62378.81;5006065;28;20310;-79
2022/12/27 05:26:01;;;;;;;8.82;5.07;;;;;;;3.64;100.00;62370.59;5007520;28;20580;-77
2022/12/27 05:28:34;;;;;;;6.50;4.60;;;;;;;3.54;100.00;62368.34;5011069;28;20227;-78
2022/12/27 05:31:02;;;;;;;6.85;5.05;;;;;;;3.56;100.00;62365.38;5012747;28;20282;-79
2022/12/27 05:33:31;;;;;;;7.70;5.30;;;;;;;3.41;100.00;62347.97;5007139;28;20446;-78
2022/12/27 05:36:00;;;;;;;8.82;4.63;;;;;;;3.44;100.00;62353.03;5007750;28;20318;-78
2022/12/27 05:38:27;;;;;;;9.65;4.78;;;;;;;3.51;100.00;62357.72;5005740;28;20209;-78
2022/12/27 05:40:59;;;;;;;7.15;5.28;;;;;;;3.54;100.00;62365.84;5005704;28;20230;-78
2022/12/27 05:43:27;;;;;;;4.97;4.57;;;;;;;3.51;100.00;62360.75;5006253;28;20205;-78
2022/12/27 05:46:03;;;;;;;9.45;5.15;;;;;;;3.76;100.00;62387.97;5009617;28;20282;-78
2022/12/27 05:48:29;;;;;;;7.43;4.90;;;;;;;3.91;100.00;62403.91;5007218;28;20427;-77
2022/12/27 05:50:56;;;;;;;6.30;5.20;;;;;;;3.93;100.00;62402.91;5007844;28;20231;-78
2022/12/27 05:53:24;;;;;;;5.68;4.22;;;;;;;4.07;100.00;62422.38;4989005;28;20220;-77
2022/12/27 05:55:54;;;;;;;9.65;4.57;;;;;;;4.43;100.00;62457.41;4988386;28;20281;-78
2022/12/27 05:58:21;;;;;;;6.88;4.85;;;;;;;4.58;100.00;62467.81;5002241;28;20195;-77
2022/12/27 06:00:48;;;;;;;7.32;5.75;;;;;;;4.75;100.00;62487.31;5007941;28;20223;-77
2022/12/27 06:03:16;;;;;;;9.25;6.90;;;;;;;4.69;100.00;62481.13;5006235;28;20196;-78
2022/12/27 06:05:43;;;;;;;16.00;9.27;;;;;;;4.48;100.00;62462.56;5004722;28;20226;-77
2022/12/27 06:08:11;;;;;;;16.92;8.85;;;;;;;4.34;100.00;62445.09;5005266;28;20196;-78
2022/12/27 06:10:38;;;;;;;13.25;8.80;;;;;;;4.11;100.00;62427.00;5005374;28;20357;-77
2022/12/27 06:13:06;;;;;;;12.52;8.38;;;;;;;3.94;100.00;62401.94;5009688;28;20200;-77
2022/12/27 06:15:33;;;;;;;15.98;9.88;;;;;;;4.03;100.00;62408.16;5008144;28;20204;-77
2022/12/27 06:18:02;;;;;;;14.00;8.57;;;;;;;4.03;100.00;62413.22;5008708;28;20246;-78
2022/12/27 06:20:31;;;;;;;17.05;8.82;;;;;;;3.98;100.00;62411.09;5009949;28;20504;-78
2022/12/27 06:23:00;;;;;;;11.45;8.15;;;;;;;4.00;100.00;62412.66;5006797;28;20554;-78
2022/12/27 06:25:27;;;;;;;10.82;7.88;;;;;;;4.03;100.00;62418.75;4999393;28;20215;-77
2022/12/27 06:27:54;;;;;;;12.40;7.97;;;;;;;4.07;100.00;62414.81;4989719;28;20459;-79
2022/12/27 06:30:22;;;;;;;12.40;7.85;;;;;;;4.03;100.00;62413.22;4987731;28;20235;-78
2022/12/27 06:32:49;;;;;;;9.60;8.05;;;;;;;4.05;100.00;62417.78;4991285;28;20208;-78
2022/12/27 06:35:16;;;;;;;12.68;8.73;;;;;;;4.03;100.00;62413.22;5008284;28;20204;-78
2022/12/27 06:37:44;;;;;;;10.63;7.53;;;;;;;4.03;100.00;62410.69;5008571;28;20200;-78
2022/12/27 06:40:12;;;;;;;15.88;9.73;;;;;;;4.04;100.00;62412.22;5007146;28;20201;-77
2022/12/27 06:42:39;;;;;;;13.27;8.80;;;;;;;4.05;100.00;62417.78;5007705;28;20330;-77
2022/12/27 06:45:09;;;;;;;12.93;8.63;;;;;;;4.05;100.00;62417.78;5011088;28;20423;-77
2022/12/27 06:47:36;;;;;;;19.88;9.10;;;;;;;4.05;100.00;62418.31;5008426;28;20219;-78
2022/12/27 06:50:03;;;;;;;13.50;8.27;;;;;;;4.14;100.00;62427.06;5007263;28;20231;-77
2022/12/27 06:52:31;;;;;;;13.82;8.82;;;;;;;4.18;100.00;62431.16;5007655;28;20235;-77
2022/12/27 06:54:59;;;;;;;11.07;8.02;;;;;;;4.13;100.00;62424.00;5007597;28;20195;-77
2022/12/27 06:57:26;;;;;;;7.78;6.97;;;;;;;4.13;100.00;62429.03;5008494;28;20223;-78
2022/12/27 06:59:53;;;;;;;14.18;7.70;;;;;;;4.26;100.00;62436.88;5008173;28;20211;-77
2022/12/27 07:02:20;;;;;;;9.68;7.07;;;;;;;4.32;100.00;62446.09;5007635;28;20266;-77
2022/12/27 07:04:47;;;;;;;9.77;6.20;;;;;;;4.39;100.00;62455.28;5007270;28;20200;-77
2022/12/27 07:07:13;;;;;;;8.40;6.28;;;;;;;4.54;100.00;62466.19;5008868;28;20294;-78
2022/12/27 07:09:41;;;;;;;7.80;6.00;;;;;;;4.67;100.00;62484.13;5008097;28;20196;-79
2022/12/27 07:12:10;;;;;;;8.30;6.75;;;;;;;4.88;100.00;62500.69;5006963;28;20275;-77
2022/12/27 07:14:37;;;;;;;9.35;6.32;;;;;;;5.06;100.00;62521.75;5006744;28;20195;-79
2022/12/27 07:17:04;;;;;;;9.23;5.90;;;;;;;5.19;100.00;62537.16;5008677;28;20242;-78
2022/12/27 07:19:31;;;;;;;8.23;6.72;;;;;;;5.71;100.00;62588.69;5005395;28;20262;-77
2022/12/27 07:21:59;;;;;;;11.63;6.38;;;;;;;6.21;100.00;62639.22;5007542;28;20227;-77
2022/12/27 07:24:26;;;;;;;9.77;5.72;;;;;;;6.48;100.00;62667.06;5010966;28;20199;-78
2022/12/27 07:26:53;;;;;;;11.65;5.75;;;;;;;6.53;100.00;62672.22;5005682;28;20219;-78
2022/12/27 07:29:22;;;;;;;6.03;5.43;;;;;;;6.58;100.00;62682.94;4986922;28;20200;-80
2022/12/27 07:31:49;;;;;;;7.97;5.38;;;;;;;6.59;100.00;62678.91;4988767;28;20298;-78
2022/12/27 07:34:16;;;;;;;6.63;5.93;;;;;;;6.66;100.00;62688.16;4989098;28;20222;-78
2022/12/27 07:36:43;;;;;;;7.05;6.25;;;;;;;6.74;100.00;62689.34;4996175;28;20226;-79
2022/12/27 07:39:11;;;;;;;8.10;6.28;;;;;;;6.65;100.00;62682.06;5010611;28;20217;-77
2022/12/27 07:41:38;;;;;;;9.95;6.40;;;;;;;6.74;100.00;62693.88;5008182;28;20230;-77
2022/12/27 07:44:05;;;;;;;17.45;9.30;;;;;;;6.30;100.00;62646.47;5008251;28;20199;-78
2022/12/27 07:46:34;;;;;;;14.20;10.27;;;;;;;6.25;100.00;62646.38;5007984;28;20252;-78
2022/12/27 07:49:01;;;;;;;16.52;11.80;;;;;;;6.20;100.00;62635.66;5007926;28;20207;-77
2022/12/27 07:51:29;;;;;;;23.65;12.57;;;;;;;6.03;100.00;62620.66;5009648;28;20238;-78
2022/12/27 07:53:57;;;;;;;25.63;13.05;;;;;;;6.08;100.00;62623.28;5008837;28;20195;-78
2022/12/27 07:56:27;;;;;;;25.30;13.30;;;;;;;6.01;100.00;62616.59;4996564;28;20274;-78
2022/12/27 07:58:55;;;;;;;15.45;11.25;;;;;;;6.05;100.00;62622.72;5006257;28;20222;-78
2022/12/27 08:01:24;;;;;;;19.55;12.02;;;;;;;6.00;100.00;62612.53;5009571;28;20226;-77
2022/12/27 08:03:52;;;;;;;19.17;11.63;;;;;;;6.01;100.00;62616.59;5006426;28;20214;-78
2022/12/27 08:06:23;;;;;;;20.15;12.45;;;;;;;5.97;100.00;62609.44;5006970;28;20230;-78
2022/12/27 08:08:51;;;;;;;22.25;13.40;;;;;;;6.10;100.00;62627.88;5007856;28;20195;-77
2022/12/27 08:11:19;;;;;;;21.90;13.98;;;;;;;6.05;100.00;62620.72;5006187;28;20289;-79
2022/12/27 08:13:46;;;;;;;25.75;14.57;;;;;;;6.17;100.00;62635.09;5007038;28;20207;-78
2022/12/27 08:16:18;;;;;;;24.48;14.93;;;;;;;5.47;100.00;62558.91;5008312;28;20231;-77
2022/12/27 08:18:45;;;;;;;24.23;14.90;;;;;;;5.35;100.00;62554.13;5007166;28;20270;-78
2022/12/27 08:21:14;;;;;;;20.77;15.40;;;;;;;5.48;100.00;62567.00;5004776;28;20250;-77
2022/12/27 08:23:41;;;;;;;23.25;15.90;;;;;;;5.52;100.00;62566.59;5006088;28;20406;-78
2022/12/27 08:26:10;;;;;;;31.77;16.67;;;;;;;5.54;100.00;62568.16;5006947;28;20286;-78
2022/12/27 08:28:37;;;;;;;32.75;14.15;;;;;;;5.32;100.00;62545.47;5006854;28;20238;-78
2022/12/27 08:31:07;;;;;;;23.98;15.00;;;;;;;5.28;100.00;62546.41;5007237;28;20302;-79
2022/12/27 08:33:35;;;;;;;24.42;14.85;;;;;;;5.38;100.00;62551.66;5010920;28;20206;-78
2022/12/27 08:36:05;;;;;;;19.75;13.63;;;;;;;5.32;100.00;62545.47;5009005;28;20215;-80
2022/12/27 08:38:34;;;;;;;27.35;14.55;;;;;;;5.20;100.00;62536.16;5006245;28;20246;-80
2022/12/27 08:41:01;;;;;;;23.90;16.35;;;;;;;5.19;100.00;62540.19;5006637;28;20234;-78
2022/12/27 08:43:29;;;;;;;26.63;16.98;;;;;;;5.23;100.00;62541.78;5007796;28;20199;-78
2022/12/27 08:46:01;;;;;;;21.40;16.27;;;;;;;5.34;100.00;62550.06;5006311;28;20230;-79
2022/12/27 08:48:28;;;;;;;25.33;16.25;;;;;;;5.42;100.00;62560.81;5005435;28;20195;-78
2022/12/27 08:50:55;;;;;;;27.80;15.35;;;;;;;5.56;100.00;62578.28;5005705;28;20235;-79
2022/12/27 08:53:23;;;;;;;26.25;15.80;;;;;;;5.65;100.00;62579.47;5005422;28;20187;-79
2022/12/27 08:55:51;;;;;;;28.40;16.77;;;;;;;5.83;100.00;62600.59;5006813;28;20251;-77
2022/12/27 08:58:17;;;;;;;23.63;14.55;;;;;;;5.97;100.00;62615.00;5005051;28;20219;-78
2022/12/27 09:00:44;;;;;;;19.05;13.32;;;;;;;6.22;100.00;62637.72;5005985;28;20408;-79
2022/12/27 09:03:11;;;;;;;20.92;13.55;;;;;;;6.48;100.00;62667.59;5005623;28;20203;-78
2022/12/27 09:05:39;;;;;;;15.35;11.57;;;;;;;6.71;100.00;62693.81;5006020;28;20286;-78
2022/12/27 09:08:06;;;;;;;19.50;11.65;;;;;;;7.00;100.00;62718.69;5007663;28;20207;-77
2022/12/27 09:10:33;;;;;;;11.60;9.68;;;;;;;7.21;100.00;62741.84;5010818;28;20259;-79
2022/12/27 09:13:02;;;;;;;12.07;9.00;;;;;;;7.35;100.00;62756.81;5006470;28;20196;-77
2022/12/27 09:15:29;;;;;;;11.77;7.50;;;;;;;7.46;100.00;62765.63;5008836;28;20508;-78
2022/12/27 09:17:57;;;;;;;17.35;8.30;;;;;;;7.75;100.00;62797.56;5009297;28;20259;-80
2022/12/27 09:20:24;;;;;;;8.32;7.25;;;;;;;7.72;97.05;62795.00;5006732;28;20211;-79
2022/12/27 09:22:51;;;;;;;10.45;7.15;;;;;;;7.93;97.17;62813.63;5006132;28;20211;-78
2022/12/27 09:25:18;;;;;;;10.13;6.65;;;;;;;8.15;96.88;62836.88;5006819;28;20485;-79
2022/12/27 09:27:46;;;;;;;11.73;6.90;;;;;;;8.43;95.82;62875.44;5006915;28;20226;-78
2022/12/27 09:30:15;;;;;;;11.18;6.85;;;;;;;8.59;93.27;62881.31;5006516;28;20226;-77
2022/12/27 09:32:42;;;;;;;10.40;6.72;;;;;;;8.61;91.07;62885.91;5005923;28;20275;-78
2022/12/27 09:35:09;;;;;;;7.60;6.25;;;;;;;8.80;92.08;62903.00;5005979;28;20422;-80
2022/12/27 09:37:36;;;;;;;9.32;5.55;;;;;;;9.00;89.96;62923.66;5006104;28;20223;-77
2022/12/27 09:40:04;;;;;;;7.80;5.50;;;;;;;9.11;87.43;62938.09;5007654;28;20203;-77
2022/12/27 09:42:44;;;;;;;9.88;6.40;;;;;;;9.18;86.02;62942.28;5007890;28;20266;-79
2022/12/27 09:45:18;;;;;;;7.25;6.28;;;;;;;9.37;85.51;62963.94;5008577;28;20370;-76
2022/12/27 09:47:55;;;;;;;11.10;7.10;;;;;;;9.45;85.78;62972.72;5010385;28;20507;-78
2022/12/27 09:50:28;;;;;;;6.80;5.85;;;;;;;9.56;82.78;62983.59;5009526;28;20233;-77
2022/12/27 09:53:02;;;;;;;8.70;6.05;;;;;;;9.71;83.15;62994.00;5011011;28;20205;-78
2022/12/27 09:55:40;;;;;;;6.25;5.55;;;;;;;9.74;80.36;62999.66;5010919;28;20195;-78
2022/12/27 09:58:38;;;;;;;12.55;6.93;;;;;;;9.86;80.14;63015.13;5009230;28;20563;-78
2022/12/27 10:01:22;;;;;;;12.25;6.78;;;;;;;10.01;79.61;63028.09;5008013;28;20258;-78
2022/12/27 10:03:49;;;;;;;8.20;6.63;;;;;;;9.99;78.05;63023.47;5010652;28;20222;-78
2022/12/27 10:06:30;;;;;;;9.32;5.65;;;;;;;10.04;78.10;63028.66;5008253;28;20220;-79
2022/12/27 10:09:03;;;;;;;8.70;6.55;;;;;;;10.08;76.16;63034.81;5011755;28;20187;-78
2022/12/27 10:11:39;;;;;;;10.48;7.13;;;;;;;10.06;76.23;63035.81;5011377;28;20239;-77
2022/12/27 10:14:19;;;;;;;11.65;7.45;;;;;;;9.92;78.73;63015.72;5008963;28;20187;-78
2022/12/27 10:16:57;;;;;;;11.00;7.25;;;;;;;10.18;78.76;63050.28;4999281;28;20213;-77
2022/12/27 10:19:35;;;;;;;12.23;8.23;;;;;;;10.20;77.20;63047.78;5010005;28;20484;-77
2022/12/27 10:22:12;;;;;;;12.32;8.00;;;;;;;10.30;76.90;63060.66;5008296;28;20223;-77
2022/12/27 10:24:42;;;;;;;10.00;7.18;;;;;;;10.43;76.61;63069.03;5009473;28;20205;-79
2022/12/27 10:27:14;;;;;;;11.05;6.68;;;;;;;10.63;75.91;63089.19;5009556;28;20382;-78
2022/12/27 10:29:43;;;;;;;7.75;6.43;;;;;;;10.69;73.17;63102.53;5008962;28;20202;-76
2022/12/27 10:32:15;;;;;;;8.68;5.90;;;;;;;10.80;73.95;63106.81;5008638;28;20239;-77
2022/12/27 10:34:42;;;;;;;7.97;6.13;;;;;;;10.74;72.82;63105.16;5007974;28;20367;-77
2022/12/27 10:37:14;;;;;;;10.68;6.80;;;;;;;10.75;72.61;63106.22;5010143;28;20219;-79
2022/12/27 10:39:42;;;;;;;17.45;11.32;;;;;;;10.73;71.63;63109.22;5009348;28;20203;-78
2022/12/27 10:42:21;;;;;;;28.90;14.35;;;;;;;10.45;73.38;63073.13;5010431;28;20554;-77
2022/12/27 10:44:48;;;;;;;16.45;8.82;;;;;;;10.44;74.55;63077.16;5010053;28;20335;-76
2022/12/27 10:47:17;;;;;;;13.50;8.45;;;;;;;10.54;75.25;63079.38;5009545;28;20443;-77
2022/12/27 10:50:02;;;;;;;15.75;10.00;;;;;;;10.77;74.55;63108.28;5008001;28;20195;-79
2022/12/27 10:52:35;;;;;;;13.55;9.95;;;;;;;10.80;72.64;63111.91;5009210;28;20235;-76
2022/12/27 10:55:02;;;;;;;12.68;9.48;;;;;;;11.03;72.42;63132.63;5008293;28;20187;-77
2022/12/27 10:57:32;;;;;;;14.45;9.30;;;;;;;11.15;71.39;63148.13;5007898;28;20250;-77
2022/12/27 11:00:16;;;;;;;16.13;9.07;;;;;;;11.06;69.89;63141.34;5008642;28;20420;-78
2022/12/27 11:02:51;;;;;;;14.20;9.50;;;;;;;11.11;70.58;63143.97;5009720;28;20429;-78
2022/12/27 11:05:24;;;;;;;17.67;9.50;;;;;;;11.17;70.23;63147.13;5010764;28;20535;-79
2022/12/27 11:07:51;;;;;;;16.35;10.13;;;;;;;11.11;69.59;63140.94;5008488;28;20207;-78
2022/12/27 11:10:19;;;;;;;13.52;9.75;;;;;;;10.95;70.50;63124.88;5007599;28;20199;-78
2022/12/27 11:12:56;;;;;;;16.73;10.25;;;;;;;11.01;70.75;63133.13;5008904;28;20262;-78
2022/12/27 11:15:24;;;;;;;18.33;10.95;;;;;;;11.18;70.75;63150.72;4997748;28;20225;-78
2022/12/27 11:17:55;;;;;;;17.23;9.88;;;;;;;11.34;70.26;63162.19;5008825;28;20403;-79
2022/12/27 11:20:25;;;;;;;17.10;11.32;;;;;;;11.42;68.39;63178.66;5011086;28;20493;-77
2022/12/27 11:22:54;;;;;;;15.63;10.50;;;;;;;11.50;68.27;63181.31;5009886;28;20204;-77
2022/12/27 11:25:22;;;;;;;14.45;9.82;;;;;;;11.65;68.39;63196.38;5008974;28;20203;-77
2022/12/27 11:27:52;;;;;;;17.35;10.23;;;;;;;11.67;67.37;63204.03;5008715;28;20246;-78
2022/12/27 11:30:25;;;;;;;15.48;10.88;;;;;;;11.68;67.61;63202.53;5009227;28;20205;-78
2022/12/27 11:32:54;;;;;;;24.38;11.55;;;;;;;11.65;67.53;63201.47;5010994;28;20235;-78
2022/12/27 11:35:23;;;;;;;19.92;12.45;;;;;;;11.57;67.09;63191.66;5008069;28;20199;-77
2022/12/27 11:37:51;;;;;;;22.48;13.57;;;;;;;11.26;69.22;63159.00;5006969;28;20200;-78
2022/12/27 11:40:25;;;;;;;20.08;13.80;;;;;;;11.31;69.73;63164.72;5007488;28;20208;-78
2022/12/27 11:42:58;;;;;;;19.38;13.95;;;;;;;11.31;68.69;63162.16;5009614;28;20227;-78
2022/12/27 11:45:33;;;;;;;19.48;13.07;;;;;;;11.40;68.97;63174.03;5013973;28;20203;-79
2022/12/27 11:48:13;;;;;;;19.30;15.20;;;;;;;11.40;68.20;63174.03;5012715;28;20234;-80
2022/12/27 11:50:55;;;;;;;22.92;14.55;;;;;;;11.39;68.50;63175.00;5010503;28;20445;-77
2022/12/27 11:53:56;;;;;;;21.08;14.98;;;;;;;11.54;66.92;63185.97;5009553;28;20206;-79
2022/12/27 11:56:26;;;;;;;25.70;15.93;;;;;;;11.53;68.09;63190.03;5010115;28;20254;-78
2022/12/27 11:59:37;;;;;;;24.25;16.42;;;;;;;11.78;68.63;63212.38;5007996;28;20259;-77
2022/12/27 12:02:29;;;;;;;26.17;16.10;;;;;;;12.10;66.65;63245.53;5008658;28;20219;-78
2022/12/27 12:05:40;;;;;;;24.98;15.93;;;;;;;12.36;64.18;63273.00;5006636;28;20196;-79
2022/12/27 12:08:27;;;;;;;24.65;15.43;;;;;;;12.63;63.44;63295.38;4963923;28;20343;-78
2022/12/27 12:11:04;;;;;;;28.55;16.08;;;;;;;12.78;62.05;63316.03;4991178;28;20524;-78
2022/12/27 12:13:48;;;;;;;22.67;15.73;;;;;;;12.85;60.68;63320.75;4999007;28;20199;-79
2022/12/27 12:16:50;;;;;;;26.92;16.70;;;;;;;12.92;60.15;63328.00;4987817;28;20223;-78
2022/12/27 12:19:35;;;;;;;22.90;17.10;;;;;;;12.98;60.36;63331.16;4987266;28;20207;-78
2022/12/27 12:22:16;;;;;;;26.70;17.35;;;;;;;13.01;60.02;63339.88;4986957;28;20540;-78
2022/12/27 12:25:07;;;;;;;26.98;16.77;;;;;;;13.03;59.37;63344.53;4993320;28;20195;-78
2022/12/27 12:27:56;;;;;;;22.75;14.65;;;;;;;12.90;59.55;63330.50;5007140;28;20215;-78
2022/12/27 12:30:56;;;;;;;22.00;13.95;;;;;;;12.91;59.97;63329.00;5152090;27;21090;-78
2022/12/27 12:33:51;;;;;;;17.65;13.25;;;;;;;12.93;60.00;63336.19;5164336;27;20219;-78
2022/12/27 12:36:51;;;;;;;20.42;13.50;;;;;;;12.91;60.76;63329.00;5165233;27;20214;-78
2022/12/27 12:39:28;;;;;;;21.70;14.85;;;;;;;12.82;61.60;63322.75;5161374;27;20204;-77
2022/12/27 12:42:21;;;;;;;26.27;15.15;;;;;;;12.65;63.35;63303.06;5165804;27;20217;-78
2022/12/27 12:45:25;;;;;;;25.60;15.57;;;;;;;12.60;64.44;63294.81;5165184;27;20475;-78
2022/12/27 12:48:07;;;;;;;27.42;14.35;;;;;;;12.58;65.52;63295.31;5181792;27;20222;-78
2022/12/27 12:51:01;;;;;;;20.60;13.50;;;;;;;12.60;65.79;63297.88;5185227;27;20186;-78
2022/12/27 12:53:49;;;;;;;26.20;13.93;;;;;;;12.47;67.60;63283.91;5184254;27;20264;-78
2022/12/27 12:56:48;;;;;;;14.55;8.60;;;;;;;12.45;68.86;63282.34;5186286;27;20219;-80
2022/12/27 12:59:35;;;;;;;7.75;6.07;;;;;;;12.45;69.35;63284.38;5185675;27;20225;-78
2022/12/27 13:02:24;;;;;;;4.78;4.20;;;;;;;12.51;68.32;63291.09;5182312;27;20250;-80
2022/12/27 13:05:08;;;;;;;7.50;4.60;;;;;;;12.62;67.99;63302.53;5164856;27;20507;-82
2022/12/27 13:07:49;;;;;;;6.28;4.43;;;;;;;12.48;69.38;63282.91;5164728;27;20500;-79
2022/12/27 13:11:02;;;;;;;4.20;3.67;;;;;;;12.39;70.12;63276.13;5173808;27;20561;-80
2022/12/27 13:13:39;;;;;;;8.18;5.03;;;;;;;12.18;72.22;63251.28;5166854;27;20380;-77
2022/12/27 13:16:25;;;;;;;7.72;5.43;;;;;;;11.93;74.62;63228.44;5164221;27;20228;-78
2022/12/27 13:19:19;;;;;;;10.43;6.43;;;;;;;11.77;76.54;63211.34;5155731;27;20201;-77
2022/12/27 13:22:06;;;;;;;17.23;10.73;;;;;;;11.62;78.32;63201.41;5167675;27;20237;-78
2022/12/27 13:24:51;;;;;;;12.05;8.00;;;;;;;11.56;79.44;63192.66;5167807;27;20194;-79
2022/12/27 13:27:44;;;;;;;11.85;8.02;;;;;;;11.54;79.86;63191.06;5169633;27;20224;-78
2022/12/27 13:30:23;;;;;;;10.68;4.78;;;;;;;11.41;79.51;63179.63;5167360;27;20229;-80